createdAt,value
2023-07-23T00:02:04.091Z,19.60
2023-07-23T00:04:32.309Z,19.57
2023-07-23T00:06:59.463Z,19.53
2023-07-23T00:09:26.663Z,19.50
2023-07-23T00:11:53.950Z,19.48
2023-07-23T00:14:21.244Z,19.43
2023-07-23T00:16:48.733Z,19.41
2023-07-23T00:19:21.791Z,19.38
2023-07-23T00:21:49.824Z,19.37
2023-07-23T00:24:20.014Z,19.34
2023-07-23T00:26:47.088Z,19.30
2023-07-23T00:29:14.438Z,19.26
2023-07-23T00:31:41.778Z,19.23
2023-07-23T00:34:09.879Z,19.20
2023-07-23T00:36:37.225Z,19.19
2023-07-23T00:39:05.952Z,19.19
2023-07-23T00:41:33.938Z,19.19
2023-07-23T00:44:01.695Z,19.21
2023-07-23T00:46:28.969Z,19.24
2023-07-23T00:48:56.128Z,19.28
2023-07-23T00:51:23.669Z,19.33
2023-07-23T00:53:51.156Z,19.36
2023-07-23T00:56:19.280Z,19.41
2023-07-23T00:58:47.610Z,19.46
2023-07-23T01:01:14.943Z,19.54
2023-07-23T01:03:42.596Z,19.63
2023-07-23T01:06:12.260Z,19.70
2023-07-23T01:08:41.556Z,19.77
2023-07-23T01:11:09.717Z,19.77
2023-07-23T01:13:37.643Z,19.75
2023-07-23T01:16:08.116Z,19.73
2023-07-23T01:18:38.915Z,19.74
2023-07-23T01:21:06.564Z,19.72
2023-07-23T01:23:34.099Z,19.70
2023-07-23T01:26:01.886Z,19.67
2023-07-23T01:28:29.303Z,19.62
2023-07-23T01:30:56.800Z,19.56
2023-07-23T01:33:24.302Z,19.51
2023-07-23T01:35:57.112Z,19.48
2023-07-23T01:38:24.935Z,19.45
2023-07-23T01:40:58.189Z,19.41
2023-07-23T01:43:25.414Z,19.35
2023-07-23T01:45:53.714Z,19.28
2023-07-23T01:48:22.541Z,19.24
2023-07-23T01:50:50.563Z,19.20
2023-07-23T01:53:18.019Z,19.17
2023-07-23T01:55:45.351Z,19.14
2023-07-23T01:58:12.651Z,19.11
2023-07-23T02:00:39.717Z,19.06
2023-07-23T02:03:06.968Z,19.03
2023-07-23T02:05:34.358Z,18.99
2023-07-23T02:08:02.539Z,18.97
2023-07-23T02:10:29.652Z,18.95
2023-07-23T02:12:57.079Z,18.93
2023-07-23T02:15:24.464Z,18.92
2023-07-23T02:17:52.047Z,18.92
2023-07-23T02:20:19.116Z,18.95
2023-07-23T02:22:47.993Z,18.94
2023-07-23T02:25:15.264Z,18.95
2023-07-23T02:27:42.516Z,18.95
2023-07-23T02:30:10.710Z,18.91
2023-07-23T02:32:38.267Z,18.91
2023-07-23T02:35:06.832Z,18.90
2023-07-23T02:37:34.027Z,18.91
2023-07-23T02:40:01.163Z,18.95
2023-07-23T02:42:28.635Z,18.99
2023-07-23T02:44:55.900Z,19.03
2023-07-23T02:47:23.095Z,19.05
2023-07-23T02:49:50.335Z,19.10
2023-07-23T02:52:17.605Z,19.16
2023-07-23T02:54:44.967Z,19.22
2023-07-23T02:57:12.536Z,19.32
2023-07-23T02:59:39.741Z,19.40
2023-07-23T03:02:07.003Z,19.46
2023-07-23T03:04:34.188Z,19.50
2023-07-23T03:07:01.441Z,19.53
2023-07-23T03:09:28.949Z,19.52
2023-07-23T03:11:56.224Z,19.52
2023-07-23T03:14:23.242Z,19.49
2023-07-23T03:16:50.553Z,19.48
2023-07-23T03:19:17.793Z,19.44
2023-07-23T03:21:46.217Z,19.41
2023-07-23T03:24:13.682Z,19.41
2023-07-23T03:26:40.854Z,19.38
2023-07-23T03:29:08.437Z,19.38
2023-07-23T03:31:35.859Z,19.37
2023-07-23T03:34:03.177Z,19.36
2023-07-23T03:36:30.216Z,19.33
2023-07-23T03:38:57.258Z,19.30
2023-07-23T03:41:24.710Z,19.28
2023-07-23T03:43:52.090Z,19.27
2023-07-23T03:46:20.056Z,19.16
2023-07-23T03:48:48.196Z,18.96
2023-07-23T03:51:16.543Z,18.84
2023-07-23T03:53:43.808Z,18.72
2023-07-23T03:56:10.937Z,18.69
2023-07-23T03:58:37.965Z,18.70
2023-07-23T04:01:05.125Z,18.67
2023-07-23T04:03:32.948Z,18.68
2023-07-23T04:06:00.285Z,18.69
2023-07-23T04:08:27.496Z,18.72
2023-07-23T04:10:56.356Z,18.74
2023-07-23T04:13:23.677Z,18.77
2023-07-23T04:15:50.929Z,18.77
2023-07-23T04:18:19.274Z,18.80
2023-07-23T04:20:46.270Z,18.84
2023-07-23T04:23:13.680Z,18.85
2023-07-23T04:25:40.727Z,18.83
2023-07-23T04:28:08.110Z,18.81
2023-07-23T04:30:35.644Z,18.81
2023-07-23T04:33:03.171Z,18.87
2023-07-23T04:35:30.662Z,18.90
2023-07-23T04:37:58.032Z,18.93
2023-07-23T04:40:25.392Z,18.98
2023-07-23T04:42:53.147Z,19.04
2023-07-23T04:45:20.624Z,19.13
2023-07-23T04:47:48.673Z,19.21
2023-07-23T04:50:15.813Z,19.33
2023-07-23T04:52:43.074Z,19.43
2023-07-23T04:55:10.634Z,19.52
2023-07-23T04:57:38.760Z,19.62
2023-07-23T05:00:07.455Z,19.70
2023-07-23T05:02:34.998Z,19.75
2023-07-23T05:05:02.207Z,19.79
2023-07-23T05:07:29.514Z,19.84
2023-07-23T05:09:56.758Z,19.88
2023-07-23T05:12:25.288Z,19.93
2023-07-23T05:14:52.887Z,20.00
2023-07-23T05:17:19.896Z,20.00
2023-07-23T05:19:48.950Z,20.02
2023-07-23T05:22:15.954Z,20.06
2023-07-23T05:24:43.133Z,20.12
2023-07-23T05:27:10.158Z,20.17
2023-07-23T05:29:37.354Z,20.21
2023-07-23T05:32:05.706Z,20.22
2023-07-23T05:34:32.716Z,20.21
2023-07-23T05:36:59.937Z,20.23
2023-07-23T05:39:26.991Z,20.23
2023-07-23T05:41:54.110Z,20.27
2023-07-23T05:44:21.397Z,20.28
2023-07-23T05:46:48.489Z,20.35
2023-07-23T05:49:15.796Z,20.42
2023-07-23T05:51:43.130Z,20.51
2023-07-23T05:54:10.218Z,20.62
2023-07-23T05:56:38.056Z,20.76
2023-07-23T05:59:05.430Z,20.87
2023-07-23T06:01:33.152Z,21.00
2023-07-23T06:04:00.690Z,21.15
2023-07-23T06:06:28.703Z,21.32
2023-07-23T06:08:57.164Z,21.51
2023-07-23T06:11:24.643Z,21.64
2023-07-23T06:13:51.915Z,21.78
2023-07-23T06:16:22.356Z,21.81
2023-07-23T06:18:49.587Z,21.82
2023-07-23T06:21:17.130Z,21.88
2023-07-23T06:23:44.431Z,21.93
2023-07-23T06:26:12.316Z,21.88
2023-07-23T06:28:39.961Z,21.90
2023-07-23T06:31:07.266Z,21.90
2023-07-23T06:33:34.313Z,21.86
2023-07-23T06:36:02.602Z,21.82
2023-07-23T06:38:30.049Z,21.74
2023-07-23T06:40:57.386Z,21.66
2023-07-23T06:43:25.111Z,21.65
2023-07-23T06:45:52.762Z,21.66
2023-07-23T06:48:21.584Z,21.73
2023-07-23T06:50:49.069Z,21.79
2023-07-23T06:53:16.437Z,21.80
2023-07-23T06:56:04.770Z,21.81
2023-07-23T06:58:34.671Z,21.84
2023-07-23T07:01:02.566Z,21.96
2023-07-23T07:03:29.932Z,22.08
2023-07-23T07:05:57.212Z,22.13
2023-07-23T07:08:24.457Z,22.16
2023-07-23T07:11:00.480Z,22.24
2023-07-23T07:13:28.612Z,22.38
2023-07-23T07:15:55.908Z,22.54
2023-07-23T07:18:24.824Z,22.66
2023-07-23T07:21:00.795Z,22.69
2023-07-23T07:23:30.380Z,22.74
2023-07-23T07:25:58.633Z,22.81
2023-07-23T07:28:26.302Z,22.87
2023-07-23T07:30:58.977Z,22.93
2023-07-23T07:33:27.388Z,22.92
2023-07-23T07:35:56.180Z,22.92
2023-07-23T07:38:25.516Z,22.98
2023-07-23T07:40:53.248Z,23.04
2023-07-23T07:43:20.164Z,23.12
2023-07-23T07:45:49.235Z,23.22
2023-07-23T07:48:18.345Z,23.30
2023-07-23T07:50:45.903Z,23.38
2023-07-23T07:53:12.822Z,23.47
2023-07-23T07:55:42.145Z,23.59
2023-07-23T07:58:14.614Z,23.69
2023-07-23T08:00:42.284Z,23.76
2023-07-23T08:03:10.097Z,23.84
2023-07-23T08:05:38.552Z,23.92
2023-07-23T08:08:07.047Z,24.00
2023-07-23T08:10:35.065Z,24.09
2023-07-23T08:13:03.285Z,24.19
2023-07-23T08:15:34.492Z,24.15
2023-07-23T08:18:01.966Z,24.13
2023-07-23T08:20:31.567Z,24.09
2023-07-23T08:22:59.353Z,24.06
2023-07-23T08:25:26.840Z,24.16
2023-07-23T08:27:59.296Z,24.31
2023-07-23T08:30:27.050Z,24.45
2023-07-23T08:33:02.216Z,24.53
2023-07-23T08:35:30.334Z,24.66
2023-07-23T08:37:58.842Z,24.80
2023-07-23T08:40:26.826Z,24.92
2023-07-23T08:42:57.792Z,25.03
2023-07-23T08:45:40.997Z,25.11
2023-07-23T08:48:16.801Z,25.18
2023-07-23T08:50:47.293Z,25.25
2023-07-23T08:53:15.932Z,25.40
2023-07-23T08:55:45.289Z,25.59
2023-07-23T08:58:17.125Z,25.73
2023-07-23T09:00:45.997Z,25.84
2023-07-23T09:03:17.517Z,25.97
2023-07-23T09:05:44.891Z,26.15
2023-07-23T09:08:12.458Z,26.15
2023-07-23T09:10:41.359Z,26.20
2023-07-23T09:13:15.936Z,26.33
2023-07-23T09:15:55.544Z,26.35
2023-07-23T09:18:22.712Z,26.31
2023-07-23T09:20:50.398Z,26.25
2023-07-23T09:23:17.826Z,26.24
2023-07-23T09:25:45.187Z,26.15
2023-07-23T09:28:22.676Z,26.01
2023-07-23T09:30:56.373Z,25.83
2023-07-23T09:33:29.931Z,25.65
2023-07-23T09:36:01.455Z,25.66
2023-07-23T09:38:29.404Z,25.67
2023-07-23T09:40:56.977Z,25.62
2023-07-23T09:43:24.719Z,25.52
2023-07-23T09:45:52.858Z,25.55
2023-07-23T09:48:20.682Z,25.70
2023-07-23T09:50:53.079Z,25.94
2023-07-23T09:53:21.222Z,26.13
2023-07-23T09:55:48.600Z,26.14
2023-07-23T09:58:17.973Z,26.31
2023-07-23T10:00:47.051Z,26.42
2023-07-23T10:03:16.418Z,26.54
2023-07-23T10:05:44.365Z,26.77
2023-07-23T10:08:12.873Z,26.96
2023-07-23T10:10:39.957Z,27.13
2023-07-23T10:13:07.464Z,27.18
2023-07-23T10:15:35.704Z,27.11
2023-07-23T10:18:03.368Z,26.97
2023-07-23T10:20:33.010Z,26.81
2023-07-23T10:23:06.100Z,26.64
2023-07-23T10:25:39.762Z,26.62
2023-07-23T10:28:08.793Z,26.87
2023-07-23T10:30:39.940Z,26.77
2023-07-23T10:33:16.197Z,26.66
2023-07-23T10:35:59.033Z,26.60
2023-07-23T10:38:32.523Z,26.79
2023-07-23T10:41:00.629Z,27.01
2023-07-23T10:43:45.391Z,27.14
2023-07-23T10:46:15.858Z,27.33
2023-07-23T10:48:52.095Z,27.34
2023-07-23T10:51:24.229Z,27.22
2023-07-23T10:53:58.021Z,26.93
2023-07-23T10:56:36.555Z,26.74
2023-07-23T10:59:09.402Z,26.63
2023-07-23T11:01:41.206Z,26.66
2023-07-23T11:04:20.885Z,26.74
2023-07-23T11:06:58.021Z,26.81
2023-07-23T11:09:28.300Z,26.88
2023-07-23T11:11:56.647Z,26.75
2023-07-23T11:14:28.713Z,26.67
2023-07-23T11:16:59.019Z,26.67
2023-07-23T11:19:28.059Z,26.73
2023-07-23T11:21:57.104Z,26.70
2023-07-23T11:24:27.203Z,26.58
2023-07-23T11:26:58.880Z,26.70
2023-07-23T11:29:26.725Z,26.92
2023-07-23T11:31:54.402Z,27.08
2023-07-23T11:34:24.157Z,27.37
2023-07-23T11:36:53.707Z,27.62
2023-07-23T11:39:23.780Z,27.76
2023-07-23T11:41:53.896Z,27.90
2023-07-23T11:44:21.735Z,27.99
2023-07-23T11:46:48.969Z,27.99
2023-07-23T11:49:16.389Z,27.91
2023-07-23T11:51:43.798Z,27.92
2023-07-23T11:54:12.277Z,27.78
2023-07-23T11:56:46.299Z,27.64
2023-07-23T11:59:18.101Z,27.70
2023-07-23T12:01:44.512Z,27.77
2023-07-23T12:04:11.762Z,27.90
2023-07-23T12:06:40.349Z,27.94
2023-07-23T12:09:09.738Z,28.00
2023-07-23T12:11:41.040Z,28.01
2023-07-23T12:14:09.881Z,27.79
2023-07-23T12:16:43.960Z,27.43
2023-07-23T12:19:14.094Z,27.18
2023-07-23T12:21:43.774Z,27.23
2023-07-23T12:24:27.914Z,27.22
2023-07-23T12:26:57.351Z,27.04
2023-07-23T12:29:26.383Z,26.91
2023-07-23T12:32:11.203Z,27.03
2023-07-23T12:34:39.748Z,27.08
2023-07-23T12:37:07.806Z,27.05
2023-07-23T12:39:34.936Z,27.03
2023-07-23T12:42:02.154Z,27.08
2023-07-23T12:44:30.485Z,27.22
2023-07-23T12:46:57.828Z,27.28
2023-07-23T12:49:25.196Z,27.32
2023-07-23T12:51:52.534Z,27.43
2023-07-23T12:54:19.868Z,27.38
2023-07-23T12:56:47.208Z,27.19
2023-07-23T12:59:14.502Z,26.96
2023-07-23T13:01:41.797Z,26.80
2023-07-23T13:04:08.985Z,26.66
2023-07-23T13:06:37.593Z,26.65
2023-07-23T13:09:06.137Z,26.74
2023-07-23T13:11:33.890Z,26.87
2023-07-23T13:14:01.031Z,27.03
2023-07-23T13:16:28.557Z,27.19
2023-07-23T13:18:56.033Z,27.37
2023-07-23T13:21:25.184Z,27.51
2023-07-23T13:23:52.959Z,27.57
2023-07-23T13:26:20.269Z,27.74
2023-07-23T13:28:47.566Z,27.96
2023-07-23T13:31:16.648Z,28.14
2023-07-23T13:33:44.081Z,28.30
2023-07-23T13:36:11.784Z,28.42
2023-07-23T13:38:39.140Z,28.54
2023-07-23T13:41:06.580Z,28.66
2023-07-23T13:43:34.225Z,28.81
2023-07-23T13:46:01.516Z,28.81
2023-07-23T13:48:28.626Z,28.71
2023-07-23T13:50:55.897Z,28.73
2023-07-23T13:53:23.265Z,28.71
2023-07-23T13:55:50.452Z,28.76
2023-07-23T13:58:17.642Z,28.79
2023-07-23T14:00:44.851Z,28.68
2023-07-23T14:03:12.073Z,28.74
2023-07-23T14:05:39.289Z,28.85
2023-07-23T14:08:06.540Z,28.93
2023-07-23T14:10:33.873Z,28.95
2023-07-23T14:13:01.064Z,28.91
2023-07-23T14:15:28.355Z,28.95
2023-07-23T14:17:55.725Z,29.02
2023-07-23T14:20:23.203Z,29.01
2023-07-23T14:22:50.367Z,29.11
2023-07-23T14:25:17.802Z,29.10
2023-07-23T14:27:45.070Z,29.01
2023-07-23T14:30:12.697Z,28.95
2023-07-23T14:32:39.963Z,28.97
2023-07-23T14:35:07.481Z,29.02
2023-07-23T14:37:34.917Z,29.05
2023-07-23T14:40:06.062Z,29.05
2023-07-23T14:42:33.468Z,29.17
2023-07-23T14:45:00.767Z,29.26
2023-07-23T14:47:27.892Z,29.34
2023-07-23T14:49:55.577Z,29.42
2023-07-23T14:52:23.059Z,29.31
2023-07-23T14:54:50.387Z,29.16
2023-07-23T14:57:17.814Z,28.97
2023-07-23T14:59:45.243Z,28.84
2023-07-23T15:02:12.681Z,28.76
2023-07-23T15:04:39.989Z,28.67
2023-07-23T15:07:07.529Z,28.64
2023-07-23T15:09:34.700Z,28.66
2023-07-23T15:12:02.509Z,28.67
2023-07-23T15:14:30.311Z,28.58
2023-07-23T15:16:58.165Z,28.53
2023-07-23T15:19:26.064Z,28.56
2023-07-23T15:21:53.825Z,28.52
2023-07-23T15:24:22.740Z,28.52
2023-07-23T15:26:52.674Z,28.60
2023-07-23T15:29:21.511Z,28.50
2023-07-23T15:31:48.869Z,28.40
2023-07-23T15:34:16.093Z,28.34
2023-07-23T15:36:43.114Z,28.36
2023-07-23T15:39:10.300Z,28.36
2023-07-23T15:41:37.701Z,28.40
2023-07-23T15:44:05.049Z,28.37
2023-07-23T15:46:32.108Z,28.35
2023-07-23T15:48:59.248Z,28.42
2023-07-23T15:51:27.392Z,28.37
2023-07-23T15:53:54.648Z,28.27
2023-07-23T15:56:21.787Z,28.23
2023-07-23T15:58:49.698Z,28.23
2023-07-23T16:01:17.057Z,28.25
2023-07-23T16:03:44.530Z,28.31
2023-07-23T16:06:12.747Z,28.33
2023-07-23T16:08:40.457Z,28.34
2023-07-23T16:11:07.539Z,28.33
2023-07-23T16:13:36.061Z,28.30
2023-07-23T16:16:03.308Z,28.30
2023-07-23T16:18:30.646Z,28.30
2023-07-23T16:20:57.911Z,28.31
2023-07-23T16:23:25.208Z,28.32
2023-07-23T16:25:52.782Z,28.28
2023-07-23T16:28:19.987Z,28.18
2023-07-23T16:30:47.736Z,28.13
2023-07-23T16:33:16.029Z,28.15
2023-07-23T16:35:43.733Z,28.17
2023-07-23T16:38:12.389Z,28.18
2023-07-23T16:40:45.248Z,28.18
2023-07-23T16:43:18.306Z,28.15
2023-07-23T16:45:46.604Z,28.04
2023-07-23T16:48:16.612Z,27.92
2023-07-23T16:50:46.035Z,27.83
2023-07-23T16:53:13.826Z,27.78
2023-07-23T16:55:41.280Z,27.75
2023-07-23T16:58:08.459Z,27.74
2023-07-23T17:00:35.625Z,27.73
2023-07-23T17:03:03.033Z,27.70
2023-07-23T17:05:30.430Z,27.63
2023-07-23T17:07:57.784Z,27.57
2023-07-23T17:10:25.279Z,27.53
2023-07-23T17:12:52.653Z,27.41
2023-07-23T17:15:19.976Z,27.29
2023-07-23T17:17:47.811Z,27.18
2023-07-23T17:20:15.049Z,27.06
2023-07-23T17:22:42.293Z,26.92
2023-07-23T17:25:10.174Z,26.83
2023-07-23T17:27:37.585Z,26.74
2023-07-23T17:30:07.088Z,26.61
2023-07-23T17:32:34.571Z,26.48
2023-07-23T17:35:01.788Z,26.37
2023-07-23T17:37:29.005Z,26.28
2023-07-23T17:39:56.244Z,26.17
2023-07-23T17:42:23.336Z,26.04
2023-07-23T17:44:50.674Z,25.94
2023-07-23T17:47:18.115Z,25.83
2023-07-23T17:49:45.090Z,25.69
2023-07-23T17:52:12.558Z,25.52
2023-07-23T17:54:39.967Z,25.36
2023-07-23T17:57:07.264Z,25.25
2023-07-23T17:59:34.468Z,25.17
2023-07-23T18:02:01.641Z,25.12
2023-07-23T18:04:29.226Z,25.09
2023-07-23T18:06:58.373Z,25.05
2023-07-23T18:09:25.528Z,25.00
2023-07-23T18:11:52.778Z,24.90
2023-07-23T18:14:19.964Z,24.78
2023-07-23T18:16:47.377Z,24.64
2023-07-23T18:19:15.784Z,24.54
2023-07-23T18:21:43.051Z,24.42
2023-07-23T18:24:10.166Z,24.32
2023-07-23T18:26:37.569Z,24.21
2023-07-23T18:29:04.683Z,24.13
2023-07-23T18:31:35.997Z,24.04
2023-07-23T18:34:02.027Z,23.95
2023-07-23T18:36:29.846Z,23.86
2023-07-23T18:38:57.433Z,23.75
2023-07-23T18:41:35.116Z,23.65
2023-07-23T18:44:04.091Z,23.56
2023-07-23T18:46:31.741Z,23.44
2023-07-23T18:48:59.295Z,23.36
2023-07-23T18:51:26.614Z,23.29
2023-07-23T18:53:53.803Z,23.21
2023-07-23T18:56:20.884Z,23.10
2023-07-23T18:58:48.406Z,23.01
2023-07-23T19:01:15.501Z,22.94
2023-07-23T19:03:44.909Z,22.85
2023-07-23T19:06:12.072Z,22.79
2023-07-23T19:08:40.028Z,22.72
2023-07-23T19:11:07.274Z,22.67
2023-07-23T19:13:34.415Z,22.60
2023-07-23T19:16:02.201Z,22.52
2023-07-23T19:18:29.683Z,22.48
2023-07-23T19:20:56.846Z,22.44
2023-07-23T19:23:24.092Z,22.38
2023-07-23T19:25:51.313Z,22.30
2023-07-23T19:28:18.587Z,22.21
2023-07-23T19:30:45.778Z,22.13
2023-07-23T19:33:12.815Z,22.06
2023-07-23T19:35:39.969Z,21.98
2023-07-23T19:38:07.251Z,21.93
2023-07-23T19:40:34.604Z,21.84
2023-07-23T19:43:01.979Z,21.75
2023-07-23T19:45:29.341Z,21.68
2023-07-23T19:47:56.914Z,21.62
2023-07-23T19:50:24.310Z,21.56
2023-07-23T19:52:51.503Z,21.54
2023-07-23T19:55:18.738Z,21.50
2023-07-23T19:57:46.210Z,21.45
2023-07-23T20:00:14.065Z,21.42
2023-07-23T20:02:41.296Z,21.37
2023-07-23T20:05:09.202Z,21.32
2023-07-23T20:07:36.380Z,21.27
2023-07-23T20:10:04.544Z,21.24
2023-07-23T20:12:31.870Z,21.19
2023-07-23T20:14:59.358Z,21.16
2023-07-23T20:17:27.282Z,21.14
2023-07-23T20:19:54.580Z,21.09
2023-07-23T20:22:21.828Z,21.05
2023-07-23T20:24:49.169Z,21.02
2023-07-23T20:27:16.793Z,20.98
2023-07-23T20:29:44.601Z,20.93
2023-07-23T20:32:13.405Z,20.88
2023-07-23T20:34:41.491Z,20.83
2023-07-23T20:37:09.818Z,20.77
2023-07-23T20:39:37.741Z,20.73
2023-07-23T20:42:06.049Z,20.69
2023-07-23T20:44:33.199Z,20.63
2023-07-23T20:47:00.587Z,20.59
2023-07-23T20:49:28.042Z,20.55
2023-07-23T20:51:55.139Z,20.51
2023-07-23T20:54:22.582Z,20.49
2023-07-23T20:56:49.958Z,20.45
2023-07-23T20:59:17.133Z,20.42
2023-07-23T21:01:44.375Z,20.39
2023-07-23T21:04:13.261Z,20.34
2023-07-23T21:06:40.374Z,20.32
2023-07-23T21:09:07.762Z,20.30
2023-07-23T21:11:34.897Z,20.24
2023-07-23T21:14:01.885Z,20.19
2023-07-23T21:16:29.975Z,20.16
2023-07-23T21:18:57.915Z,20.11
2023-07-23T21:21:25.259Z,20.08
2023-07-23T21:23:52.360Z,20.03
2023-07-23T21:26:19.518Z,19.98
2023-07-23T21:28:46.529Z,19.91
2023-07-23T21:31:13.652Z,19.86
2023-07-23T21:33:41.877Z,19.81
2023-07-23T21:36:08.928Z,19.79
2023-07-23T21:38:36.055Z,19.76
2023-07-23T21:41:03.848Z,19.72
2023-07-23T21:43:31.136Z,19.70
2023-07-23T21:46:00.148Z,19.66
2023-07-23T21:48:27.658Z,19.61
2023-07-23T21:50:55.739Z,19.58
2023-07-23T21:53:23.148Z,19.55
2023-07-23T21:55:50.288Z,19.52
2023-07-23T21:58:19.118Z,19.50
2023-07-23T22:00:46.732Z,19.46
2023-07-23T22:03:14.379Z,19.42
2023-07-23T22:05:41.940Z,19.35
2023-07-23T22:08:09.464Z,19.30
2023-07-23T22:10:36.851Z,19.24
2023-07-23T22:13:04.116Z,19.19
2023-07-23T22:15:31.333Z,19.15
2023-07-23T22:17:58.742Z,19.11
2023-07-23T22:20:26.113Z,19.10
2023-07-23T22:22:53.746Z,19.09
2023-07-23T22:25:20.842Z,19.05
2023-07-23T22:27:48.081Z,19.03
2023-07-23T22:30:29.343Z,19.02
2023-07-23T22:32:44.212Z,19.01
2023-07-23T22:35:11.319Z,18.97
2023-07-23T22:37:38.594Z,18.95
2023-07-23T22:40:07.480Z,18.94
2023-07-23T22:42:34.633Z,18.90
2023-07-23T22:45:01.832Z,18.87
2023-07-23T22:47:29.740Z,18.83
2023-07-23T22:49:57.658Z,18.78
2023-07-23T22:52:27.446Z,18.77
2023-07-23T22:54:54.059Z,18.76
2023-07-23T22:57:22.795Z,18.74
2023-07-23T22:59:50.217Z,18.73
2023-07-23T23:02:17.499Z,18.74
2023-07-23T23:04:44.598Z,18.73
2023-07-23T23:07:11.938Z,18.72
2023-07-23T23:09:39.073Z,18.67
2023-07-23T23:12:06.743Z,18.60
2023-07-23T23:14:34.116Z,18.54
2023-07-23T23:17:01.412Z,18.49
2023-07-23T23:19:28.677Z,18.45
2023-07-23T23:21:55.869Z,18.42
2023-07-23T23:24:23.051Z,18.39
2023-07-23T23:26:50.361Z,18.37
2023-07-23T23:29:17.653Z,18.34
2023-07-23T23:31:44.941Z,18.31
2023-07-23T23:34:12.328Z,18.28
2023-07-23T23:36:39.427Z,18.26
2023-07-23T23:39:06.577Z,18.25
2023-07-23T23:41:33.768Z,18.22
2023-07-23T23:44:00.809Z,18.19
2023-07-23T23:46:28.467Z,18.16
2023-07-23T23:48:55.992Z,18.15
2023-07-23T23:51:23.219Z,18.12
2023-07-23T23:53:50.377Z,18.10
2023-07-23T23:56:17.649Z,18.06
2023-07-23T23:58:44.861Z,18.03
